createdAt,value
2023-03-17T00:01:24.143Z,70.43
2023-03-17T00:04:27.768Z,70.81
2023-03-17T00:07:29.974Z,70.77
2023-03-17T00:10:32.220Z,70.73
2023-03-17T00:13:35.405Z,70.95
2023-03-17T00:16:39.013Z,70.93
2023-03-17T00:19:42.664Z,70.70
2023-03-17T00:22:44.985Z,71.16
2023-03-17T00:25:47.556Z,71.26
2023-03-17T00:28:51.097Z,71.57
2023-03-17T00:31:53.744Z,71.63
2023-03-17T00:34:58.808Z,72.17
2023-03-17T00:38:00.970Z,72.14
2023-03-17T00:41:03.206Z,71.70
2023-03-17T00:44:06.676Z,72.06
2023-03-17T00:47:09.616Z,71.61
2023-03-17T00:50:15.604Z,72.34
2023-03-17T00:53:18.985Z,71.92
2023-03-17T00:56:21.266Z,72.23
2023-03-17T00:59:26.365Z,72.80
2023-03-17T01:02:28.062Z,72.34
2023-03-17T01:05:31.234Z,71.91
2023-03-17T01:08:32.951Z,71.84
2023-03-17T01:11:35.226Z,71.80
2023-03-17T01:14:38.102Z,71.50
2023-03-17T01:17:40.137Z,71.62
2023-03-17T01:20:43.686Z,71.33
2023-03-17T01:23:46.101Z,71.87
2023-03-17T01:26:47.906Z,70.68
2023-03-17T01:29:52.421Z,70.46
2023-03-17T01:32:55.612Z,71.72
2023-03-17T01:35:58.993Z,71.56
2023-03-17T01:39:00.635Z,70.89
2023-03-17T01:42:02.476Z,70.71
2023-03-17T01:45:06.035Z,71.61
2023-03-17T01:48:09.124Z,71.90
2023-03-17T01:51:16.502Z,71.38
2023-03-17T01:54:20.911Z,71.54
2023-03-17T01:57:25.443Z,71.94
2023-03-17T02:00:27.171Z,71.72
2023-03-17T02:03:29.817Z,71.40
2023-03-17T02:06:33.434Z,71.11
2023-03-17T02:09:35.527Z,71.08
2023-03-17T02:12:37.282Z,70.45
2023-03-17T02:15:40.413Z,70.18
2023-03-17T02:18:42.374Z,70.47
2023-03-17T02:21:46.113Z,70.40
2023-03-17T02:24:50.867Z,70.15
2023-03-17T02:27:55.764Z,70.32
2023-03-17T02:30:58.041Z,70.25
2023-03-17T02:33:59.943Z,70.17
2023-03-17T02:37:03.947Z,70.73
2023-03-17T02:40:06.337Z,70.79
2023-03-17T02:43:08.022Z,70.57
2023-03-17T02:46:09.853Z,69.72
2023-03-17T02:49:12.233Z,69.76
2023-03-17T02:52:15.541Z,70.47
2023-03-17T02:55:17.457Z,70.69
2023-03-17T02:58:19.145Z,70.96
2023-03-17T03:01:21.396Z,71.36
2023-03-17T03:04:24.271Z,70.96
2023-03-17T03:07:27.444Z,70.99
2023-03-17T03:10:29.296Z,71.10
2023-03-17T03:13:31.663Z,70.85
2023-03-17T03:16:33.668Z,69.59
2023-03-17T03:19:37.571Z,69.38
2023-03-17T03:22:40.837Z,70.17
2023-03-17T03:25:42.667Z,69.80
2023-03-17T03:28:44.308Z,69.90
2023-03-17T03:31:48.183Z,69.59
2023-03-17T03:34:50.028Z,70.35
2023-03-17T03:37:53.214Z,70.69
2023-03-17T03:40:54.808Z,70.27
2023-03-17T03:43:56.988Z,70.04
2023-03-17T03:46:58.633Z,70.26
2023-03-17T03:50:00.694Z,70.22
2023-03-17T03:53:03.937Z,70.07
2023-03-17T03:56:11.294Z,70.15
2023-03-17T03:59:13.007Z,70.33
2023-03-17T04:02:14.710Z,70.19
2023-03-17T04:05:18.315Z,69.85
2023-03-17T04:08:21.636Z,70.09
2023-03-17T04:11:23.410Z,70.39
2023-03-17T04:14:25.258Z,70.64
2023-03-17T04:17:27.011Z,71.34
2023-03-17T04:20:29.158Z,71.80
2023-03-17T04:23:32.421Z,72.03
2023-03-17T04:26:34.032Z,72.72
2023-03-17T04:29:36.193Z,73.25
2023-03-17T04:32:38.291Z,73.41
2023-03-17T04:35:40.017Z,72.93
2023-03-17T04:38:43.073Z,72.63
2023-03-17T04:41:44.823Z,72.96
2023-03-17T04:44:46.487Z,73.30
2023-03-17T04:47:48.330Z,73.94
2023-03-17T04:50:49.942Z,74.41
2023-03-17T04:53:53.067Z,74.09
2023-03-17T04:56:54.744Z,74.39
2023-03-17T05:00:00.593Z,74.61
2023-03-17T05:03:02.481Z,74.80
2023-03-17T05:06:04.642Z,74.57
2023-03-17T05:09:07.916Z,75.17
2023-03-17T05:12:10.244Z,75.42
2023-03-17T05:15:12.242Z,75.10
2023-03-17T05:18:14.121Z,74.94
2023-03-17T05:21:16.434Z,74.99
2023-03-17T05:24:19.741Z,74.86
2023-03-17T05:27:21.575Z,74.98
2023-03-17T05:30:23.202Z,74.98
2023-03-17T05:33:24.884Z,74.90
2023-03-17T05:36:26.694Z,75.17
2023-03-17T05:39:29.681Z,74.93
2023-03-17T05:42:31.531Z,74.87
2023-03-17T05:45:33.482Z,74.46
2023-03-17T05:48:35.542Z,74.31
2023-03-17T05:51:37.228Z,74.28
2023-03-17T05:54:40.607Z,74.25
2023-03-17T05:57:42.400Z,74.35
2023-03-17T06:00:44.291Z,74.51
2023-03-17T06:03:45.987Z,74.83
2023-03-17T06:06:47.649Z,74.68
2023-03-17T06:09:50.695Z,74.60
2023-03-17T06:12:52.214Z,74.39
2023-03-17T06:15:54.089Z,73.82
2023-03-17T06:18:55.942Z,73.81
2023-03-17T06:21:57.534Z,74.00
2023-03-17T06:25:00.939Z,73.56
2023-03-17T06:28:04.081Z,73.32
2023-03-17T06:31:07.451Z,73.04
2023-03-17T06:34:09.263Z,72.84
2023-03-17T06:37:10.926Z,72.06
2023-03-17T06:40:16.237Z,72.55
2023-03-17T06:43:19.660Z,71.26
2023-03-17T06:46:21.627Z,71.12
2023-03-17T06:49:23.331Z,71.85
2023-03-17T06:52:25.486Z,71.41
2023-03-17T06:55:29.539Z,71.57
2023-03-17T06:58:31.852Z,71.92
2023-03-17T07:01:33.746Z,70.06
2023-03-17T07:04:38.039Z,70.84
2023-03-17T07:07:39.982Z,70.20
2023-03-17T07:10:44.019Z,68.94
2023-03-17T07:13:46.337Z,67.91
2023-03-17T07:16:49.298Z,68.38
2023-03-17T07:19:52.448Z,67.01
2023-03-17T07:22:54.107Z,66.92
2023-03-17T07:26:00.423Z,66.64
2023-03-17T07:29:02.079Z,67.53
2023-03-17T07:32:06.552Z,65.73
2023-03-17T07:35:08.300Z,66.53
2023-03-17T07:38:10.351Z,66.53
2023-03-17T07:41:13.915Z,65.98
2023-03-17T07:44:15.487Z,66.29
2023-03-17T07:47:17.214Z,65.99
2023-03-17T07:50:19.029Z,67.20
2023-03-17T07:53:21.053Z,66.15
2023-03-17T07:56:23.900Z,66.37
2023-03-17T07:59:25.556Z,66.83
2023-03-17T08:02:27.221Z,66.38
2023-03-17T08:05:28.697Z,66.96
2023-03-17T08:08:30.590Z,66.31
2023-03-17T08:11:33.608Z,64.94
2023-03-17T08:14:35.138Z,64.39
2023-03-17T08:17:37.446Z,65.43
2023-03-17T08:20:39.155Z,65.01
2023-03-17T08:23:40.833Z,63.90
2023-03-17T08:26:43.808Z,64.79
2023-03-17T08:29:45.357Z,63.65
2023-03-17T08:32:47.804Z,63.46
2023-03-17T08:35:49.970Z,62.83
2023-03-17T08:38:52.042Z,62.46
2023-03-17T08:41:55.660Z,62.51
2023-03-17T08:44:57.419Z,61.50
2023-03-17T08:47:59.214Z,61.51
2023-03-17T08:51:00.899Z,60.73
2023-03-17T08:54:03.035Z,61.39
2023-03-17T09:00:27.036Z,59.08
2023-03-17T09:03:29.295Z,59.38
2023-03-17T09:06:31.595Z,60.84
2023-03-17T09:09:34.536Z,58.93
2023-03-17T09:12:36.273Z,59.10
2023-03-17T09:15:39.796Z,58.97
2023-03-17T09:18:41.998Z,59.63
2023-03-17T09:21:43.762Z,59.76
2023-03-17T09:24:45.998Z,59.49
2023-03-17T09:27:48.008Z,58.88
2023-03-17T09:30:51.833Z,57.64
2023-03-17T09:33:53.586Z,58.85
2023-03-17T09:36:55.812Z,59.00
2023-03-17T09:39:58.159Z,59.23
2023-03-17T09:43:06.932Z,58.65
2023-03-17T09:46:19.063Z,58.57
2023-03-17T09:49:22.803Z,57.12
2023-03-17T09:52:27.243Z,57.56
2023-03-17T09:55:30.109Z,58.34
2023-03-17T09:58:33.410Z,58.33
2023-03-17T10:01:41.096Z,57.49
2023-03-17T10:04:44.979Z,57.95
2023-03-17T10:07:51.005Z,57.70
2023-03-17T10:10:57.656Z,57.43
2023-03-17T10:17:19.711Z,58.07
2023-03-17T10:20:24.536Z,59.06
2023-03-17T10:23:27.914Z,59.17
2023-03-17T10:26:32.503Z,58.15
2023-03-17T10:29:37.159Z,59.18
2023-03-17T10:32:41.213Z,57.67
2023-03-17T10:35:45.266Z,56.05
2023-03-17T10:38:54.469Z,55.97
2023-03-17T10:41:57.623Z,57.07
2023-03-17T10:45:01.566Z,56.72
2023-03-17T10:48:07.745Z,57.79
2023-03-17T10:51:11.446Z,56.84
2023-03-17T10:54:17.807Z,56.76
2023-03-17T10:57:19.882Z,55.85
2023-03-17T11:00:23.404Z,56.14
2023-03-17T11:03:28.928Z,55.89
2023-03-17T11:06:37.249Z,55.32
2023-03-17T11:09:39.898Z,54.85
2023-03-17T11:12:42.420Z,55.76
2023-03-17T11:15:48.511Z,54.96
2023-03-17T11:18:54.665Z,55.73
2023-03-17T11:22:01.389Z,55.84
2023-03-17T11:25:06.433Z,55.83
2023-03-17T11:28:16.974Z,55.46
2023-03-17T11:31:25.446Z,55.25
2023-03-17T11:34:33.884Z,55.53
2023-03-17T11:37:45.277Z,55.69
2023-03-17T11:41:02.671Z,56.08
2023-03-17T11:44:22.599Z,54.32
2023-03-17T11:47:37.389Z,54.65
2023-03-17T11:50:45.339Z,54.05
2023-03-17T11:53:55.319Z,55.20
2023-03-17T11:57:00.013Z,55.42
2023-03-17T12:00:04.000Z,56.02
2023-03-17T12:03:17.610Z,54.50
2023-03-17T12:06:26.020Z,53.64
2023-03-17T12:09:34.310Z,55.07
2023-03-17T12:12:40.956Z,54.81
2023-03-17T12:15:45.808Z,55.36
2023-03-17T12:19:03.372Z,54.90
2023-03-17T12:22:09.384Z,55.45
2023-03-17T12:25:13.328Z,55.38
2023-03-17T12:28:19.239Z,55.34
2023-03-17T12:31:22.808Z,53.32
2023-03-17T12:34:27.100Z,54.59
2023-03-17T12:37:30.258Z,53.24
2023-03-17T12:40:34.772Z,53.37
2023-03-17T12:43:38.643Z,53.89
2023-03-17T12:46:48.465Z,53.60
2023-03-17T12:50:02.671Z,53.33
2023-03-17T12:53:19.954Z,53.40
2023-03-17T12:56:24.373Z,53.85
2023-03-17T12:59:26.506Z,54.20
2023-03-17T13:02:32.500Z,55.17
2023-03-17T13:05:37.328Z,53.58
2023-03-17T13:08:42.260Z,54.73
2023-03-17T13:11:47.301Z,55.12
2023-03-17T13:14:51.656Z,54.10
2023-03-17T13:18:16.401Z,54.30
2023-03-17T13:21:20.537Z,54.37
2023-03-17T13:24:41.907Z,54.18
2023-03-17T13:27:45.662Z,55.05
2023-03-17T13:30:59.823Z,55.25
2023-03-17T13:34:15.249Z,56.21
2023-03-17T13:37:22.850Z,56.08
2023-03-17T13:40:31.984Z,55.82
2023-03-17T13:43:47.489Z,53.34
2023-03-17T13:46:49.722Z,54.68
2023-03-17T13:49:53.088Z,54.57
2023-03-17T13:52:56.258Z,55.54
2023-03-17T13:56:09.128Z,54.32
2023-03-17T13:59:13.649Z,55.05
2023-03-17T14:02:16.988Z,54.90
2023-03-17T14:05:21.214Z,54.41
2023-03-17T14:08:26.732Z,54.54
2023-03-17T14:11:32.964Z,54.84
2023-03-17T14:14:38.366Z,55.80
2023-03-17T14:17:42.866Z,55.70
2023-03-17T14:20:52.264Z,55.60
2023-03-17T14:23:55.105Z,55.10
2023-03-17T14:26:58.343Z,55.64
2023-03-17T14:30:05.622Z,55.58
2023-03-17T14:33:13.991Z,55.38
2023-03-17T14:36:16.059Z,56.07
2023-03-17T14:39:23.113Z,55.15
2023-03-17T14:42:30.162Z,55.68
2023-03-17T14:45:41.814Z,55.02
2023-03-17T14:48:47.061Z,55.45
2023-03-17T14:51:49.846Z,56.25
2023-03-17T14:54:53.281Z,56.62
2023-03-17T14:57:56.844Z,56.55
2023-03-17T15:01:02.852Z,56.83
2023-03-17T15:04:07.341Z,56.64
2023-03-17T15:07:23.760Z,56.32
2023-03-17T15:10:26.590Z,56.35
2023-03-17T15:13:33.765Z,55.59
2023-03-17T15:16:36.252Z,56.27
2023-03-17T15:19:40.347Z,56.00
2023-03-17T15:22:43.501Z,56.20
2023-03-17T15:25:46.279Z,56.63
2023-03-17T15:28:49.414Z,56.53
2023-03-17T15:31:51.210Z,55.56
2023-03-17T15:34:53.885Z,55.06
2023-03-17T15:37:56.011Z,55.76
2023-03-17T15:40:57.865Z,56.17
2023-03-17T15:44:03.482Z,56.50
2023-03-17T15:47:05.785Z,56.57
2023-03-17T15:50:13.640Z,55.82
2023-03-17T15:53:15.209Z,55.55
2023-03-17T15:56:19.153Z,56.48
2023-03-17T15:59:22.796Z,56.61
2023-03-17T16:02:27.774Z,56.36
2023-03-17T16:05:31.146Z,55.55
2023-03-17T16:08:33.890Z,56.17
2023-03-17T16:11:35.525Z,55.80
2023-03-17T16:14:39.087Z,55.73
2023-03-17T16:17:41.638Z,55.30
2023-03-17T16:20:44.299Z,55.73
2023-03-17T16:23:46.806Z,55.38
2023-03-17T16:26:49.212Z,55.32
2023-03-17T16:29:53.265Z,55.85
2023-03-17T16:32:57.730Z,56.08
2023-03-17T16:36:00.164Z,56.19
2023-03-17T16:39:02.171Z,56.35
2023-03-17T16:42:04.220Z,56.54
2023-03-17T16:45:13.852Z,56.21
2023-03-17T16:48:15.741Z,55.98
2023-03-17T16:51:17.949Z,55.94
2023-03-17T16:54:19.868Z,55.85
2023-03-17T16:57:21.514Z,56.10
2023-03-17T17:00:26.187Z,56.50
2023-03-17T17:03:27.850Z,55.86
2023-03-17T17:06:29.631Z,56.28
2023-03-17T17:09:31.445Z,55.89
2023-03-17T17:12:33.213Z,56.16
2023-03-17T17:15:37.078Z,56.23
2023-03-17T17:18:38.690Z,56.33
2023-03-17T17:21:40.609Z,56.30
2023-03-17T17:24:42.337Z,56.17
2023-03-17T17:27:45.399Z,56.66
2023-03-17T17:30:49.340Z,56.58
2023-03-17T17:33:51.000Z,56.92
2023-03-17T17:36:53.098Z,56.38
2023-03-17T17:39:54.880Z,56.86
2023-03-17T17:42:57.709Z,57.43
2023-03-17T17:46:01.066Z,58.09
2023-03-17T17:49:02.640Z,57.97
2023-03-17T17:52:04.673Z,58.07
2023-03-17T17:55:06.641Z,58.39
2023-03-17T17:58:08.511Z,58.31
2023-03-17T18:01:13.520Z,58.23
2023-03-17T18:04:15.435Z,59.09
2023-03-17T18:07:17.230Z,58.79
2023-03-17T18:10:22.320Z,58.43
2023-03-17T18:13:23.994Z,58.74
2023-03-17T18:16:27.148Z,58.77
2023-03-17T18:19:28.804Z,58.84
2023-03-17T18:22:30.585Z,58.95
2023-03-17T18:25:32.256Z,58.67
2023-03-17T18:28:34.279Z,59.02
2023-03-17T18:31:40.539Z,59.37
2023-03-17T18:34:43.995Z,59.51
2023-03-17T18:37:45.831Z,58.98
2023-03-17T18:40:47.456Z,59.26
2023-03-17T18:43:49.230Z,59.10
2023-03-17T18:46:52.392Z,59.00
2023-03-17T18:49:54.047Z,59.01
2023-03-17T18:52:56.207Z,59.63
2023-03-17T18:55:59.354Z,61.14
2023-03-17T18:59:01.282Z,61.62
2023-03-17T19:02:04.748Z,62.21
2023-03-17T19:05:07.560Z,62.63
2023-03-17T19:08:09.333Z,64.19
2023-03-17T19:11:13.610Z,66.44
2023-03-17T19:14:15.266Z,67.52
2023-03-17T19:17:18.321Z,68.49
2023-03-17T19:20:20.316Z,69.51
2023-03-17T19:23:22.134Z,69.07
2023-03-17T19:26:23.823Z,67.24
2023-03-17T19:29:27.697Z,66.36
2023-03-17T19:32:30.955Z,66.43
2023-03-17T19:35:32.571Z,64.65
2023-03-17T19:38:35.357Z,64.84
2023-03-17T19:41:37.406Z,64.25
2023-03-17T19:44:38.990Z,63.39
2023-03-17T19:47:42.642Z,63.13
2023-03-17T19:50:44.734Z,64.30
2023-03-17T19:53:46.337Z,64.03
2023-03-17T19:56:47.917Z,63.81
2023-03-17T19:59:51.304Z,64.05
2023-03-17T20:02:54.259Z,64.55
2023-03-17T20:05:55.879Z,64.28
2023-03-17T20:08:57.534Z,64.55
2023-03-17T20:11:59.336Z,64.45
2023-03-17T20:15:01.566Z,64.39
2023-03-17T20:18:04.529Z,64.24
2023-03-17T20:21:11.147Z,63.49
2023-03-17T20:24:14.795Z,63.74
2023-03-17T20:27:17.508Z,63.24
2023-03-17T20:30:19.276Z,63.33
2023-03-17T20:33:22.462Z,63.06
2023-03-17T20:36:24.576Z,62.95
2023-03-17T20:39:26.590Z,62.83
2023-03-17T20:42:28.345Z,61.92
2023-03-17T20:45:30.221Z,61.97
2023-03-17T20:48:34.669Z,62.44
2023-03-17T20:51:36.871Z,63.05
2023-03-17T20:54:39.108Z,62.65
2023-03-17T20:57:41.634Z,63.02
2023-03-17T21:00:43.343Z,62.16
2023-03-17T21:03:47.331Z,62.79
2023-03-17T21:06:49.824Z,63.41
2023-03-17T21:09:52.169Z,62.59
2023-03-17T21:12:54.248Z,62.52
2023-03-17T21:15:56.806Z,62.22
2023-03-17T21:19:00.190Z,62.07
2023-03-17T21:25:10.760Z,61.85
2023-03-17T21:28:13.797Z,62.25
2023-03-17T21:31:17.316Z,62.72
2023-03-17T21:34:20.677Z,62.97
2023-03-17T21:37:22.533Z,63.25
2023-03-17T21:40:26.254Z,62.94
2023-03-17T21:43:28.986Z,63.41
2023-03-17T21:46:31.742Z,63.53
2023-03-17T21:49:35.088Z,63.52
2023-03-17T21:52:39.593Z,64.17
2023-03-17T21:55:41.539Z,64.44
2023-03-17T21:58:43.234Z,64.25
2023-03-17T22:01:44.964Z,64.37
2023-03-17T22:04:48.817Z,64.74
2023-03-17T22:07:50.621Z,65.12
2023-03-17T22:10:53.228Z,65.29
2023-03-17T22:13:55.886Z,65.61
2023-03-17T22:16:57.648Z,65.51
2023-03-17T22:20:01.116Z,66.08
2023-03-17T22:23:03.282Z,66.25
2023-03-17T22:26:05.055Z,65.86
2023-03-17T22:29:07.606Z,66.04
2023-03-17T22:32:09.986Z,66.14
2023-03-17T22:35:13.572Z,66.12
2023-03-17T22:38:15.246Z,66.39
2023-03-17T22:41:18.354Z,66.37
2023-03-17T22:44:19.970Z,66.64
2023-03-17T22:47:21.592Z,66.80
2023-03-17T22:50:24.601Z,66.50
2023-03-17T22:53:26.582Z,67.77
2023-03-17T22:56:28.965Z,69.08
2023-03-17T22:59:30.846Z,70.33
2023-03-17T23:02:32.676Z,70.08
2023-03-17T23:05:35.687Z,69.92
2023-03-17T23:08:38.502Z,69.44
2023-03-17T23:11:40.931Z,68.81
2023-03-17T23:14:43.692Z,68.15
2023-03-17T23:17:46.356Z,68.31
2023-03-17T23:20:51.569Z,68.69
2023-03-17T23:23:53.528Z,68.66
2023-03-17T23:26:55.893Z,68.59
2023-03-17T23:29:59.155Z,68.34
2023-03-17T23:33:01.301Z,68.48
2023-03-17T23:36:03.567Z,68.32
2023-03-17T23:39:07.462Z,68.59
2023-03-17T23:42:10.810Z,68.47
2023-03-17T23:45:12.419Z,68.62
2023-03-17T23:48:14.310Z,68.95
2023-03-17T23:51:17.129Z,69.03
2023-03-17T23:54:20.414Z,69.51
2023-03-17T23:57:26.674Z,69.49
